PWSweather.com
Personal Weather Stations
Station Observations
PICKERING
North Yorkshire, PickeringGB

North YorkshirePickeringGB

Lat: 54.2494, Lon: -0.7725

Elevation: 192

Station Type: Oregon Scientific WMR100

http://www.yorkshirewalker.co.uk/weather/

High Low Average
Temperature 61.7°F16.5°C 36.0°F2.2°C 46.2°F7.9°C
Dew Point 53.6°F12.0°C 32.0°F0.0°C 40.8°F4.9°C
Winds 3.7 mph 6.0 kmh Calm Calm 1.0 mph E1.6 kmh E
Wind Gusts 7.8 mph12.6 kmh -- 2.0 mph3.2 kmh
Humidity 86% 71% 80%
Pressure 30.60 in1036.2 mb 29.39 in995.3 mb -
Precipitation 0.00 in0.0 mm - -
Hour Temp Dew Point Humidity Winds Wind Gusts Pressure Precip Precip Rate Daily Precip Total
12:00 AM 45.3°F7.4°C 41.0°F5.0°C 82% 0.9 mph NE1.4 kmh NE 1.6 mph2.6 kmh 29.56 in1001.0 mb 0.00 in0.0 mm 0.00 in0.0 mm 0.00 in0.0 mm
12:05 AM 45.0°F7.2°C 41.0°F5.0°C 82% 0.3 mph NE0.5 kmh NE 1.3 mph2.1 kmh 29.56 in1001.0 mb 0.00 in0.0 mm 0.00 in0.0 mm 0.00 in0.0 mm
12:10 AM 44.8°F7.1°C 39.2°F4.0°C 82% 0.6 mph NE1.0 kmh NE 3.1 mph5.0 kmh 29.56 in1001.0 mb 0.00 in0.0 mm 0.00 in0.0 mm 0.00 in0.0 mm
12:15 AM 45.0°F7.2°C 41.0°F5.0°C 82% 1.4 mph NE2.3 kmh NE 3.1 mph5.0 kmh 29.56 in1001.0 mb 0.00 in0.0 mm 0.00 in0.0 mm 0.00 in0.0 mm
12:20 AM 44.6°F7.0°C 39.2°F4.0°C 82% 0.9 mph NE1.4 kmh NE 2.7 mph4.3 kmh 29.56 in1001.0 mb 0.00 in0.0 mm 0.00 in0.0 mm 0.00 in0.0 mm
12:25 AM 44.6°F7.0°C 39.2°F4.0°C 82% 0.6 mph NE1.0 kmh NE 1.3 mph2.1 kmh 29.56 in1001.0 mb 0.00 in0.0 mm 0.00 in0.0 mm 0.00 in0.0 mm
12:30 AM 44.6°F7.0°C 39.2°F4.0°C 82% 1.7 mph NE2.7 kmh NE 2.9 mph4.7 kmh 29.56 in1001.0 mb 0.00 in0.0 mm 0.00 in0.0 mm 0.00 in0.0 mm
12:35 AM 44.4°F6.9°C 39.2°F4.0°C 82% 2.0 mph NE3.2 kmh NE 2.9 mph4.7 kmh 29.56 in1001.0 mb 0.00 in0.0 mm 0.00 in0.0 mm 0.00 in0.0 mm
12:40 AM 44.4°F6.9°C 39.2°F4.0°C 83% 2.1 mph NE3.4 kmh NE 3.6 mph5.8 kmh 29.56 in1001.0 mb 0.00 in0.0 mm 0.00 in0.0 mm 0.00 in0.0 mm
12:45 AM 44.4°F6.9°C 39.2°F4.0°C 83% 2.4 mph NE3.9 kmh NE 3.6 mph5.8 kmh 29.56 in1001.0 mb 0.00 in0.0 mm 0.00 in0.0 mm 0.00 in0.0 mm
12:50 AM 44.1°F6.7°C 39.2°F4.0°C 83% 2.0 mph NE3.2 kmh NE 2.9 mph4.7 kmh 29.56 in1001.0 mb 0.00 in0.0 mm 0.00 in0.0 mm 0.00 in0.0 mm
12:55 AM 44.1°F6.7°C 39.2°F4.0°C 83% 2.0 mph NE3.2 kmh NE 3.1 mph5.0 kmh 29.56 in1001.0 mb 0.00 in0.0 mm 0.00 in0.0 mm 0.00 in0.0 mm
01:00 AM 43.9°F6.6°C 39.2°F4.0°C 83% 2.0 mph NE3.2 kmh NE 3.1 mph5.0 kmh 29.56 in1001.0 mb 0.00 in0.0 mm 0.00 in0.0 mm 0.00 in0.0 mm
01:05 AM 43.7°F6.5°C 39.2°F4.0°C 83% 1.1 mph NE1.8 kmh NE 2.7 mph4.3 kmh 29.41 in995.9 mb 0.00 in0.0 mm 0.00 in0.0 mm 0.00 in0.0 mm
01:10 AM 43.3°F6.3°C 39.2°F4.0°C 83% 0.6 mph NE1.0 kmh NE 1.6 mph2.6 kmh 29.41 in995.9 mb 0.00 in0.0 mm 0.00 in0.0 mm 0.00 in0.0 mm
01:15 AM 43.2°F6.2°C 39.2°F4.0°C 83% 0.9 mph NE1.4 kmh NE 1.6 mph2.6 kmh 29.41 in995.9 mb 0.00 in0.0 mm 0.00 in0.0 mm 0.00 in0.0 mm
01:20 AM 43.2°F6.2°C 39.2°F4.0°C 83% 0.9 mph NE1.4 kmh NE 1.3 mph2.1 kmh 29.56 in1001.0 mb 0.00 in0.0 mm 0.00 in0.0 mm 0.00 in0.0 mm
01:25 AM 43.0°F6.1°C 37.4°F3.0°C 83% 1.1 mph NE1.8 kmh NE 1.3 mph2.1 kmh 29.56 in1001.0 mb 0.00 in0.0 mm 0.00 in0.0 mm 0.00 in0.0 mm
01:30 AM 43.0°F6.1°C 37.4°F3.0°C 83% 2.1 mph NE3.4 kmh NE 4.0 mph6.4 kmh 29.56 in1001.0 mb 0.00 in0.0 mm 0.00 in0.0 mm 0.00 in0.0 mm
01:35 AM 43.0°F6.1°C 37.4°F3.0°C 83% 1.8 mph ENE2.9 kmh ENE 4.0 mph6.4 kmh 29.56 in1001.0 mb 0.00 in0.0 mm 0.00 in0.0 mm 0.00 in0.0 mm
01:40 AM 42.8°F6.0°C 37.4°F3.0°C 83% 1.2 mph E1.9 kmh E 2.5 mph4.0 kmh 29.56 in1001.0 mb 0.00 in0.0 mm 0.00 in0.0 mm 0.00 in0.0 mm
01:45 AM 42.6°F5.9°C 37.4°F3.0°C 83% 1.6 mph ENE2.6 kmh ENE 2.5 mph4.0 kmh 29.56 in1001.0 mb 0.00 in0.0 mm 0.00 in0.0 mm 0.00 in0.0 mm
01:50 AM 42.4°F5.8°C 37.4°F3.0°C 83% 1.6 mph E2.6 kmh E 2.5 mph4.0 kmh 29.56 in1001.0 mb 0.00 in0.0 mm 0.00 in0.0 mm 0.00 in0.0 mm
01:55 AM 42.1°F5.6°C 37.4°F3.0°C 83% 1.4 mph ENE2.3 kmh ENE 2.5 mph4.0 kmh 29.56 in1001.0 mb 0.00 in0.0 mm 0.00 in0.0 mm 0.00 in0.0 mm
02:00 AM 41.9°F5.5°C 37.4°F3.0°C 83% 0.6 mph N1.0 kmh N 2.2 mph3.5 kmh 29.56 in1001.0 mb 0.00 in0.0 mm 0.00 in0.0 mm 0.00 in0.0 mm
02:05 AM 41.7°F5.4°C 37.4°F3.0°C 83% 0.2 mph NE0.3 kmh NE 0.9 mph1.4 kmh 29.39 in995.3 mb 0.00 in0.0 mm 0.00 in0.0 mm 0.00 in0.0 mm
02:10 AM 41.5°F5.3°C 37.4°F3.0°C 83% Calm Calm -- 29.39 in995.3 mb 0.00 in0.0 mm 0.00 in0.0 mm 0.00 in0.0 mm
02:15 AM 41.2°F5.1°C 37.4°F3.0°C 83% Calm Calm -- 29.39 in995.3 mb 0.00 in0.0 mm 0.00 in0.0 mm 0.00 in0.0 mm
02:20 AM 41.0°F5.0°C 37.4°F3.0°C 83% 0.4 mph NNE0.6 kmh NNE 1.3 mph2.1 kmh 29.56 in1001.0 mb 0.00 in0.0 mm 0.00 in0.0 mm 0.00 in0.0 mm
02:25 AM 40.6°F4.8°C 35.6°F2.0°C 83% 0.4 mph NNE0.6 kmh NNE 1.3 mph2.1 kmh 29.56 in1001.0 mb 0.00 in0.0 mm 0.00 in0.0 mm 0.00 in0.0 mm
02:30 AM 40.6°F4.8°C 35.6°F2.0°C 83% 0.3 mph NE0.5 kmh NE 1.3 mph2.1 kmh 29.56 in1001.0 mb 0.00 in0.0 mm 0.00 in0.0 mm 0.00 in0.0 mm
02:35 AM 40.8°F4.9°C 35.6°F2.0°C 83% 0.7 mph NE1.1 kmh NE 2.0 mph3.2 kmh 29.53 in1000.0 mb 0.00 in0.0 mm 0.00 in0.0 mm 0.00 in0.0 mm
02:40 AM 40.6°F4.8°C 35.6°F2.0°C 83% 1.0 mph NE1.6 kmh NE 2.7 mph4.3 kmh 29.53 in1000.0 mb 0.00 in0.0 mm 0.00 in0.0 mm 0.00 in0.0 mm
02:45 AM 40.5°F4.7°C 35.6°F2.0°C 83% 0.7 mph NE1.1 kmh NE 2.7 mph4.3 kmh 29.53 in1000.0 mb 0.00 in0.0 mm 0.00 in0.0 mm 0.00 in0.0 mm
02:50 AM 40.1°F4.5°C 35.6°F2.0°C 83% 0.6 mph NE1.0 kmh NE 2.7 mph4.3 kmh 29.56 in1001.0 mb 0.00 in0.0 mm 0.00 in0.0 mm 0.00 in0.0 mm
02:55 AM 40.1°F4.5°C 35.6°F2.0°C 83% 0.5 mph NNE0.8 kmh NNE 1.3 mph2.1 kmh 29.56 in1001.0 mb 0.00 in0.0 mm 0.00 in0.0 mm 0.00 in0.0 mm
03:00 AM 40.1°F4.5°C 35.6°F2.0°C 83% 0.7 mph NNE1.1 kmh NNE 1.3 mph2.1 kmh 29.56 in1001.0 mb 0.00 in0.0 mm 0.00 in0.0 mm 0.00 in0.0 mm
03:05 AM 40.3°F4.6°C 35.6°F2.0°C 83% 0.8 mph NE1.3 kmh NE 1.3 mph2.1 kmh 29.39 in995.3 mb 0.00 in0.0 mm 0.00 in0.0 mm 0.00 in0.0 mm
03:10 AM 40.3°F4.6°C 35.6°F2.0°C 83% 1.1 mph NE1.8 kmh NE 2.0 mph3.2 kmh 29.39 in995.3 mb 0.00 in0.0 mm 0.00 in0.0 mm 0.00 in0.0 mm
03:15 AM 39.9°F4.4°C 35.6°F2.0°C 83% 0.9 mph NNE1.4 kmh NNE 2.0 mph3.2 kmh 29.39 in995.3 mb 0.00 in0.0 mm 0.00 in0.0 mm 0.00 in0.0 mm
03:20 AM 40.3°F4.6°C 35.6°F2.0°C 84% 1.2 mph NNE1.9 kmh NNE 2.7 mph4.3 kmh 29.56 in1001.0 mb 0.00 in0.0 mm 0.00 in0.0 mm 0.00 in0.0 mm
03:25 AM 40.5°F4.7°C 35.6°F2.0°C 84% 1.9 mph NE3.1 kmh NE 2.7 mph4.3 kmh 29.56 in1001.0 mb 0.00 in0.0 mm 0.00 in0.0 mm 0.00 in0.0 mm
03:30 AM 40.3°F4.6°C 35.6°F2.0°C 84% 1.8 mph NE2.9 kmh NE 2.7 mph4.3 kmh 29.56 in1001.0 mb 0.00 in0.0 mm 0.00 in0.0 mm 0.00 in0.0 mm
03:35 AM 40.1°F4.5°C 35.6°F2.0°C 84% 1.3 mph NE2.1 kmh NE 2.7 mph4.3 kmh 29.56 in1001.0 mb 0.00 in0.0 mm 0.00 in0.0 mm 0.00 in0.0 mm
03:40 AM 39.7°F4.3°C 35.6°F2.0°C 84% 1.1 mph N1.8 kmh N 2.0 mph3.2 kmh 29.56 in1001.0 mb 0.00 in0.0 mm 0.00 in0.0 mm 0.00 in0.0 mm
03:45 AM 39.4°F4.1°C 33.8°F1.0°C 83% 0.8 mph N1.3 kmh N 2.0 mph3.2 kmh 29.56 in1001.0 mb 0.00 in0.0 mm 0.00 in0.0 mm 0.00 in0.0 mm
03:50 AM 39.2°F4.0°C 33.8°F1.0°C 83% 0.9 mph N1.4 kmh N 2.0 mph3.2 kmh 29.56 in1001.0 mb 0.00 in0.0 mm 0.00 in0.0 mm 0.00 in0.0 mm
03:55 AM 39.2°F4.0°C 33.8°F1.0°C 83% 0.9 mph NNE1.4 kmh NNE 2.5 mph4.0 kmh 29.56 in1001.0 mb 0.00 in0.0 mm 0.00 in0.0 mm 0.00 in0.0 mm
04:00 AM 39.0°F3.9°C 33.8°F1.0°C 83% 1.1 mph NE1.8 kmh NE 2.5 mph4.0 kmh 29.56 in1001.0 mb 0.00 in0.0 mm 0.00 in0.0 mm 0.00 in0.0 mm
04:05 AM 39.4°F4.1°C 33.8°F1.0°C 83% 2.0 mph NE3.2 kmh NE 3.4 mph5.5 kmh 29.56 in1001.0 mb 0.00 in0.0 mm 0.00 in0.0 mm 0.00 in0.0 mm
04:10 AM 39.6°F4.2°C 35.6°F2.0°C 84% 2.7 mph NE4.3 kmh NE 4.3 mph6.9 kmh 29.56 in1001.0 mb 0.00 in0.0 mm 0.00 in0.0 mm 0.00 in0.0 mm
04:15 AM 39.4°F4.1°C 35.6°F2.0°C 84% 3.0 mph NE4.8 kmh NE 4.3 mph6.9 kmh 29.56 in1001.0 mb 0.00 in0.0 mm 0.00 in0.0 mm 0.00 in0.0 mm
04:20 AM 39.4°F4.1°C 35.6°F2.0°C 84% 2.8 mph ENE4.5 kmh ENE 3.8 mph6.1 kmh 29.56 in1001.0 mb 0.00 in0.0 mm 0.00 in0.0 mm 0.00 in0.0 mm
04:25 AM 39.6°F4.2°C 35.6°F2.0°C 84% 2.4 mph ENE3.9 kmh ENE 3.8 mph6.1 kmh 29.56 in1001.0 mb 0.00 in0.0 mm 0.00 in0.0 mm 0.00 in0.0 mm
04:30 AM 39.2°F4.0°C 35.6°F2.0°C 84% 1.7 mph NE2.7 kmh NE 2.5 mph4.0 kmh 29.56 in1001.0 mb 0.00 in0.0 mm 0.00 in0.0 mm 0.00 in0.0 mm
04:35 AM 38.8°F3.8°C 33.8°F1.0°C 84% 1.0 mph NE1.6 kmh NE 2.0 mph3.2 kmh 29.56 in1001.0 mb 0.00 in0.0 mm 0.00 in0.0 mm 0.00 in0.0 mm
04:40 AM 38.7°F3.7°C 33.8°F1.0°C 84% 0.5 mph NE0.8 kmh NE 1.6 mph2.6 kmh 29.56 in1001.0 mb 0.00 in0.0 mm 0.00 in0.0 mm 0.00 in0.0 mm
04:45 AM 38.3°F3.5°C 33.8°F1.0°C 83% 0.1 mph NE0.2 kmh NE 1.1 mph1.8 kmh 29.56 in1001.0 mb 0.00 in0.0 mm 0.00 in0.0 mm 0.00 in0.0 mm
04:50 AM 38.3°F3.5°C 33.8°F1.0°C 83% 0.1 mph ENE0.2 kmh ENE 0.9 mph1.4 kmh 29.56 in1001.0 mb 0.00 in0.0 mm 0.00 in0.0 mm 0.00 in0.0 mm
04:55 AM 38.1°F3.4°C 33.8°F1.0°C 83% 0.4 mph ENE0.6 kmh ENE 1.1 mph1.8 kmh 29.56 in1001.0 mb 0.00 in0.0 mm 0.00 in0.0 mm 0.00 in0.0 mm
05:00 AM 38.1°F3.4°C 33.8°F1.0°C 83% 1.0 mph NE1.6 kmh NE 2.5 mph4.0 kmh 29.56 in1001.0 mb 0.00 in0.0 mm 0.00 in0.0 mm 0.00 in0.0 mm
05:05 AM 37.8°F3.2°C 33.8°F1.0°C 83% 1.0 mph NE1.6 kmh NE 2.5 mph4.0 kmh 29.56 in1001.0 mb 0.00 in0.0 mm 0.00 in0.0 mm 0.00 in0.0 mm
05:10 AM 37.8°F3.2°C 33.8°F1.0°C 83% 1.1 mph NE1.8 kmh NE 2.7 mph4.3 kmh 29.56 in1001.0 mb 0.00 in0.0 mm 0.00 in0.0 mm 0.00 in0.0 mm
05:15 AM 37.8°F3.2°C 33.8°F1.0°C 83% 1.4 mph NE2.3 kmh NE 3.1 mph5.0 kmh 29.56 in1001.0 mb 0.00 in0.0 mm 0.00 in0.0 mm 0.00 in0.0 mm
05:20 AM 37.6°F3.1°C 33.8°F1.0°C 83% 1.1 mph NE1.8 kmh NE 3.1 mph5.0 kmh 29.56 in1001.0 mb 0.00 in0.0 mm 0.00 in0.0 mm 0.00 in0.0 mm
05:25 AM 37.4°F3.0°C 33.8°F1.0°C 83% 0.4 mph NE0.6 kmh NE 1.3 mph2.1 kmh 29.56 in1001.0 mb 0.00 in0.0 mm 0.00 in0.0 mm 0.00 in0.0 mm
05:30 AM 37.2°F2.9°C 33.8°F1.0°C 83% 0.1 mph NE0.2 kmh NE 1.1 mph1.8 kmh 29.56 in1001.0 mb 0.00 in0.0 mm 0.00 in0.0 mm 0.00 in0.0 mm
05:35 AM 37.2°F2.9°C 33.8°F1.0°C 83% 0.1 mph NE0.2 kmh NE 1.1 mph1.8 kmh 29.59 in1002.0 mb 0.00 in0.0 mm 0.00 in0.0 mm 0.00 in0.0 mm
05:40 AM 37.0°F2.8°C 33.8°F1.0°C 83% Calm Calm -- 29.59 in1002.0 mb 0.00 in0.0 mm 0.00 in0.0 mm 0.00 in0.0 mm
05:45 AM 36.9°F2.7°C 32.0°F0.0°C 83% 0.1 mph NE0.2 kmh NE 1.1 mph1.8 kmh 29.59 in1002.0 mb 0.00 in0.0 mm 0.00 in0.0 mm 0.00 in0.0 mm
05:50 AM 36.7°F2.6°C 32.0°F0.0°C 83% 0.2 mph NE0.3 kmh NE 1.1 mph1.8 kmh 29.56 in1001.0 mb 0.00 in0.0 mm 0.00 in0.0 mm 0.00 in0.0 mm
05:55 AM 36.7°F2.6°C 32.0°F0.0°C 83% 0.2 mph NE0.3 kmh NE 0.9 mph1.4 kmh 29.56 in1001.0 mb 0.00 in0.0 mm 0.00 in0.0 mm 0.00 in0.0 mm
06:00 AM 36.5°F2.5°C 32.0°F0.0°C 83% 0.4 mph NE0.6 kmh NE 0.9 mph1.4 kmh 29.56 in1001.0 mb 0.00 in0.0 mm 0.00 in0.0 mm 0.00 in0.0 mm
06:05 AM 36.5°F2.5°C 32.0°F0.0°C 83% 0.7 mph NE1.1 kmh NE 1.3 mph2.1 kmh 29.59 in1002.0 mb 0.00 in0.0 mm 0.00 in0.0 mm 0.00 in0.0 mm
06:10 AM 36.3°F2.4°C 32.0°F0.0°C 83% 0.4 mph NE0.6 kmh NE 1.3 mph2.1 kmh 29.59 in1002.0 mb 0.00 in0.0 mm 0.00 in0.0 mm 0.00 in0.0 mm
06:15 AM 36.3°F2.4°C 32.0°F0.0°C 83% 0.2 mph NE0.3 kmh NE 1.1 mph1.8 kmh 29.59 in1002.0 mb 0.00 in0.0 mm 0.00 in0.0 mm 0.00 in0.0 mm
06:20 AM 36.1°F2.3°C 32.0°F0.0°C 83% 0.3 mph NE0.5 kmh NE 1.1 mph1.8 kmh 29.56 in1001.0 mb 0.00 in0.0 mm 0.00 in0.0 mm 0.00 in0.0 mm
06:25 AM 36.0°F2.2°C 32.0°F0.0°C 83% 0.5 mph NE0.8 kmh NE 1.1 mph1.8 kmh 29.56 in1001.0 mb 0.00 in0.0 mm 0.00 in0.0 mm 0.00 in0.0 mm
06:30 AM 36.0°F2.2°C 32.0°F0.0°C 83% 0.6 mph NE1.0 kmh NE 1.1 mph1.8 kmh 29.56 in1001.0 mb 0.00 in0.0 mm 0.00 in0.0 mm 0.00 in0.0 mm
06:35 AM 36.0°F2.2°C 32.0°F0.0°C 83% 0.5 mph NE0.8 kmh NE 1.1 mph1.8 kmh 29.59 in1002.0 mb 0.00 in0.0 mm 0.00 in0.0 mm 0.00 in0.0 mm
06:40 AM 36.0°F2.2°C 32.0°F0.0°C 83% 0.5 mph NNE0.8 kmh NNE 1.3 mph2.1 kmh 29.59 in1002.0 mb 0.00 in0.0 mm 0.00 in0.0 mm 0.00 in0.0 mm
06:45 AM 36.5°F2.5°C 32.0°F0.0°C 83% 1.0 mph NE1.6 kmh NE 1.3 mph2.1 kmh 29.59 in1002.0 mb 0.00 in0.0 mm 0.00 in0.0 mm 0.00 in0.0 mm
06:50 AM 36.3°F2.4°C 32.0°F0.0°C 83% 1.0 mph NE1.6 kmh NE 1.3 mph2.1 kmh 29.56 in1001.0 mb 0.00 in0.0 mm 0.00 in0.0 mm 0.00 in0.0 mm
06:55 AM 36.7°F2.6°C 33.8°F1.0°C 84% 1.3 mph NE2.1 kmh NE 2.5 mph4.0 kmh 29.56 in1001.0 mb 0.00 in0.0 mm 0.00 in0.0 mm 0.00 in0.0 mm
07:00 AM 36.7°F2.6°C 33.8°F1.0°C 84% 1.9 mph NE3.1 kmh NE 3.4 mph5.5 kmh 29.56 in1001.0 mb 0.00 in0.0 mm 0.00 in0.0 mm 0.00 in0.0 mm
07:05 AM 36.5°F2.5°C 33.8°F1.0°C 84% 1.9 mph NE3.1 kmh NE 3.4 mph5.5 kmh 29.59 in1002.0 mb 0.00 in0.0 mm 0.00 in0.0 mm 0.00 in0.0 mm
07:10 AM 36.3°F2.4°C 32.0°F0.0°C 84% 1.2 mph NE1.9 kmh NE 2.5 mph4.0 kmh 29.59 in1002.0 mb 0.00 in0.0 mm 0.00 in0.0 mm 0.00 in0.0 mm
07:15 AM 36.3°F2.4°C 32.0°F0.0°C 84% 0.2 mph NE0.3 kmh NE 1.1 mph1.8 kmh 29.59 in1002.0 mb 0.00 in0.0 mm 0.00 in0.0 mm 0.00 in0.0 mm
07:20 AM 36.1°F2.3°C 32.0°F0.0°C 84% Calm Calm -- 29.56 in1001.0 mb 0.00 in0.0 mm 0.00 in0.0 mm 0.00 in0.0 mm
07:25 AM 36.0°F2.2°C 32.0°F0.0°C 84% Calm Calm -- 29.56 in1001.0 mb 0.00 in0.0 mm 0.00 in0.0 mm 0.00 in0.0 mm
07:30 AM 36.1°F2.3°C 32.0°F0.0°C 84% 0.7 mph E1.1 kmh E 2.0 mph3.2 kmh 29.56 in1001.0 mb 0.00 in0.0 mm 0.00 in0.0 mm 0.00 in0.0 mm
07:35 AM 36.3°F2.4°C 32.0°F0.0°C 84% 1.0 mph E1.6 kmh E 2.0 mph3.2 kmh 29.59 in1002.0 mb 0.00 in0.0 mm 0.00 in0.0 mm 0.00 in0.0 mm
07:40 AM 36.1°F2.3°C 32.0°F0.0°C 84% 0.3 mph E0.5 kmh E 2.0 mph3.2 kmh 29.59 in1002.0 mb 0.00 in0.0 mm 0.00 in0.0 mm 0.00 in0.0 mm
07:45 AM 36.5°F2.5°C 33.8°F1.0°C 84% Calm Calm -- 29.59 in1002.0 mb 0.00 in0.0 mm 0.00 in0.0 mm 0.00 in0.0 mm
07:50 AM 36.1°F2.3°C 32.0°F0.0°C 84% Calm Calm -- 29.56 in1001.0 mb 0.00 in0.0 mm 0.00 in0.0 mm 0.00 in0.0 mm
07:55 AM 36.0°F2.2°C 32.0°F0.0°C 84% Calm Calm -- 29.56 in1001.0 mb 0.00 in0.0 mm 0.00 in0.0 mm 0.00 in0.0 mm
08:00 AM 36.0°F2.2°C 32.0°F0.0°C 83% Calm Calm -- 29.56 in1001.0 mb 0.00 in0.0 mm 0.00 in0.0 mm 0.00 in0.0 mm
08:05 AM 36.1°F2.3°C 32.0°F0.0°C 83% Calm Calm -- 29.62 in1003.0 mb 0.00 in0.0 mm 0.00 in0.0 mm 0.00 in0.0 mm
08:10 AM 36.1°F2.3°C 32.0°F0.0°C 83% 0.1 mph SSW0.2 kmh SSW 0.9 mph1.4 kmh 29.62 in1003.0 mb 0.00 in0.0 mm 0.00 in0.0 mm 0.00 in0.0 mm
08:15 AM 36.3°F2.4°C 32.0°F0.0°C 84% 0.3 mph WSW0.5 kmh WSW 1.1 mph1.8 kmh 29.62 in1003.0 mb 0.00 in0.0 mm 0.00 in0.0 mm 0.00 in0.0 mm
08:20 AM 36.5°F2.5°C 33.8°F1.0°C 84% 0.6 mph WNW1.0 kmh WNW 1.1 mph1.8 kmh 29.62 in1003.0 mb 0.00 in0.0 mm 0.00 in0.0 mm 0.00 in0.0 mm
08:25 AM 36.7°F2.6°C 33.8°F1.0°C 84% 0.6 mph NW1.0 kmh NW 1.1 mph1.8 kmh 29.62 in1003.0 mb 0.00 in0.0 mm 0.00 in0.0 mm 0.00 in0.0 mm
08:30 AM 36.9°F2.7°C 33.8°F1.0°C 84% 0.5 mph NNE0.8 kmh NNE 1.6 mph2.6 kmh 29.62 in1003.0 mb 0.00 in0.0 mm 0.00 in0.0 mm 0.00 in0.0 mm
08:35 AM 37.2°F2.9°C 33.8°F1.0°C 84% 0.7 mph ENE1.1 kmh ENE 1.6 mph2.6 kmh 29.62 in1003.0 mb 0.00 in0.0 mm 0.00 in0.0 mm 0.00 in0.0 mm
08:40 AM 37.4°F3.0°C 33.8°F1.0°C 84% 0.3 mph E0.5 kmh E 1.6 mph2.6 kmh 29.62 in1003.0 mb 0.00 in0.0 mm 0.00 in0.0 mm 0.00 in0.0 mm
08:45 AM 37.8°F3.2°C 33.8°F1.0°C 84% Calm Calm -- 29.62 in1003.0 mb 0.00 in0.0 mm 0.00 in0.0 mm 0.00 in0.0 mm
08:50 AM 38.3°F3.5°C 33.8°F1.0°C 84% Calm Calm -- 29.59 in1002.0 mb 0.00 in0.0 mm 0.00 in0.0 mm 0.00 in0.0 mm
08:55 AM 38.7°F3.7°C 35.6°F2.0°C 85% 0.1 mph E0.2 kmh E 1.1 mph1.8 kmh 29.59 in1002.0 mb 0.00 in0.0 mm 0.00 in0.0 mm 0.00 in0.0 mm
09:00 AM 39.4°F4.1°C 35.6°F2.0°C 85% 0.7 mph ESE1.1 kmh ESE 1.6 mph2.6 kmh 29.59 in1002.0 mb 0.00 in0.0 mm 0.00 in0.0 mm 0.00 in0.0 mm
09:05 AM 39.9°F4.4°C 35.6°F2.0°C 85% 1.1 mph ESE1.8 kmh ESE 2.0 mph3.2 kmh 29.45 in997.3 mb 0.00 in0.0 mm 0.00 in0.0 mm 0.00 in0.0 mm
09:10 AM 40.1°F4.5°C 37.4°F3.0°C 85% 0.6 mph ESE1.0 kmh ESE 2.0 mph3.2 kmh 29.45 in997.3 mb 0.00 in0.0 mm 0.00 in0.0 mm 0.00 in0.0 mm
09:15 AM 40.5°F4.7°C 37.4°F3.0°C 86% Calm Calm -- 29.45 in997.3 mb 0.00 in0.0 mm 0.00 in0.0 mm 0.00 in0.0 mm
09:20 AM 40.8°F4.9°C 37.4°F3.0°C 86% 0.1 mph ENE0.2 kmh ENE 1.1 mph1.8 kmh 29.62 in1003.0 mb 0.00 in0.0 mm 0.00 in0.0 mm 0.00 in0.0 mm
09:25 AM 41.5°F5.3°C 37.4°F3.0°C 86% 0.2 mph ENE0.3 kmh ENE 1.1 mph1.8 kmh 29.62 in1003.0 mb 0.00 in0.0 mm 0.00 in0.0 mm 0.00 in0.0 mm
09:30 AM 41.9°F5.5°C 39.2°F4.0°C 86% 0.1 mph E0.2 kmh E 0.9 mph1.4 kmh 29.62 in1003.0 mb 0.00 in0.0 mm 0.00 in0.0 mm 0.00 in0.0 mm
09:35 AM 42.1°F5.6°C 39.2°F4.0°C 86% 0.1 mph E0.2 kmh E 0.9 mph1.4 kmh 29.62 in1003.0 mb 0.00 in0.0 mm 0.00 in0.0 mm 0.00 in0.0 mm
09:40 AM 42.4°F5.8°C 39.2°F4.0°C 86% 0.1 mph SW0.2 kmh SW 1.1 mph1.8 kmh 29.62 in1003.0 mb 0.00 in0.0 mm 0.00 in0.0 mm 0.00 in0.0 mm
09:45 AM 42.8°F6.0°C 39.2°F4.0°C 86% 0.9 mph SSW1.4 kmh SSW 2.5 mph4.0 kmh 29.62 in1003.0 mb 0.00 in0.0 mm 0.00 in0.0 mm 0.00 in0.0 mm
09:50 AM 42.8°F6.0°C 39.2°F4.0°C 86% 1.1 mph SSW1.8 kmh SSW 2.5 mph4.0 kmh 29.62 in1003.0 mb 0.00 in0.0 mm 0.00 in0.0 mm 0.00 in0.0 mm
09:55 AM 43.0°F6.1°C 39.2°F4.0°C 85% 0.6 mph SSW1.0 kmh SSW 2.0 mph3.2 kmh 29.62 in1003.0 mb 0.00 in0.0 mm 0.00 in0.0 mm 0.00 in0.0 mm
10:00 AM 43.2°F6.2°C 39.2°F4.0°C 85% 0.6 mph S1.0 kmh S 2.0 mph3.2 kmh 29.62 in1003.0 mb 0.00 in0.0 mm 0.00 in0.0 mm 0.00 in0.0 mm
10:05 AM 43.2°F6.2°C 39.2°F4.0°C 84% 0.4 mph SSE0.6 kmh SSE 2.0 mph3.2 kmh 29.62 in1003.0 mb 0.00 in0.0 mm 0.00 in0.0 mm 0.00 in0.0 mm
10:10 AM 43.7°F6.5°C 39.2°F4.0°C 84% 0.3 mph SSE0.5 kmh SSE 0.9 mph1.4 kmh 29.62 in1003.0 mb 0.00 in0.0 mm 0.00 in0.0 mm 0.00 in0.0 mm
10:15 AM 44.1°F6.7°C 41.0°F5.0°C 85% 0.1 mph SE0.2 kmh SE 0.9 mph1.4 kmh 29.62 in1003.0 mb 0.00 in0.0 mm 0.00 in0.0 mm 0.00 in0.0 mm
10:20 AM 44.2°F6.8°C 41.0°F5.0°C 85% 0.2 mph S0.3 kmh S 1.6 mph2.6 kmh 29.62 in1003.0 mb 0.00 in0.0 mm 0.00 in0.0 mm 0.00 in0.0 mm
10:25 AM 44.6°F7.0°C 41.0°F5.0°C 85% 0.5 mph SSE0.8 kmh SSE 1.6 mph2.6 kmh 29.62 in1003.0 mb 0.00 in0.0 mm 0.00 in0.0 mm 0.00 in0.0 mm
10:30 AM 45.5°F7.5°C 42.8°F6.0°C 85% 0.6 mph SE1.0 kmh SE 1.6 mph2.6 kmh 29.62 in1003.0 mb 0.00 in0.0 mm 0.00 in0.0 mm 0.00 in0.0 mm
10:35 AM 45.9°F7.7°C 41.0°F5.0°C 84% 0.5 mph SE0.8 kmh SE 1.3 mph2.1 kmh 29.41 in995.9 mb 0.00 in0.0 mm 0.00 in0.0 mm 0.00 in0.0 mm
10:40 AM 46.6°F8.1°C 42.8°F6.0°C 84% 0.1 mph SSE0.2 kmh SSE 0.9 mph1.4 kmh 29.41 in995.9 mb 0.00 in0.0 mm 0.00 in0.0 mm 0.00 in0.0 mm
10:45 AM 48.0°F8.9°C 44.6°F7.0°C 84% 0.9 mph SW1.4 kmh SW 2.9 mph4.7 kmh 29.41 in995.9 mb 0.00 in0.0 mm 0.00 in0.0 mm 0.00 in0.0 mm
10:50 AM 48.2°F9.0°C 42.8°F6.0°C 83% 1.6 mph WSW2.6 kmh WSW 2.9 mph4.7 kmh 29.65 in1004.1 mb 0.00 in0.0 mm 0.00 in0.0 mm 0.00 in0.0 mm
10:55 AM 50.4°F10.2°C 46.4°F8.0°C 82% 1.4 mph SW2.3 kmh SW 2.9 mph4.7 kmh 29.65 in1004.1 mb 0.00 in0.0 mm 0.00 in0.0 mm 0.00 in0.0 mm
11:00 AM 51.6°F10.9°C 46.4°F8.0°C 81% 0.8 mph S1.3 kmh S 1.6 mph2.6 kmh 29.65 in1004.1 mb 0.00 in0.0 mm 0.00 in0.0 mm 0.00 in0.0 mm
11:05 AM 52.9°F11.6°C 48.2°F9.0°C 80% 0.4 mph SE0.6 kmh SE 1.3 mph2.1 kmh 29.65 in1004.1 mb 0.00 in0.0 mm 0.00 in0.0 mm 0.00 in0.0 mm
11:10 AM 54.1°F12.3°C 48.2°F9.0°C 79% 0.6 mph SW1.0 kmh SW 2.0 mph3.2 kmh 29.65 in1004.1 mb 0.00 in0.0 mm 0.00 in0.0 mm 0.00 in0.0 mm
11:15 AM 55.0°F12.8°C 50.0°F10.0°C 79% 0.8 mph SW1.3 kmh SW 2.0 mph3.2 kmh 29.65 in1004.1 mb 0.00 in0.0 mm 0.00 in0.0 mm 0.00 in0.0 mm
11:20 AM 55.8°F13.2°C 50.0°F10.0°C 78% 0.7 mph SW1.1 kmh SW 1.3 mph2.1 kmh 29.65 in1004.1 mb 0.00 in0.0 mm 0.00 in0.0 mm 0.00 in0.0 mm
11:25 AM 56.7°F13.7°C 50.0°F10.0°C 78% 0.6 mph WSW1.0 kmh WSW 1.3 mph2.1 kmh 29.65 in1004.1 mb 0.00 in0.0 mm 0.00 in0.0 mm 0.00 in0.0 mm
11:30 AM 57.2°F14.0°C 50.0°F10.0°C 77% 0.3 mph WSW0.5 kmh WSW 1.3 mph2.1 kmh 29.65 in1004.1 mb 0.00 in0.0 mm 0.00 in0.0 mm 0.00 in0.0 mm
11:35 AM 57.7°F14.3°C 50.0°F10.0°C 76% 0.2 mph S0.3 kmh S 1.3 mph2.1 kmh 29.65 in1004.1 mb 0.00 in0.0 mm 0.00 in0.0 mm 0.00 in0.0 mm
11:40 AM 58.5°F14.7°C 51.8°F11.0°C 76% 0.3 mph SE0.5 kmh SE 2.0 mph3.2 kmh 29.65 in1004.1 mb 0.00 in0.0 mm 0.00 in0.0 mm 0.00 in0.0 mm
11:45 AM 58.6°F14.8°C 51.8°F11.0°C 76% 1.1 mph ESE1.8 kmh ESE 2.5 mph4.0 kmh 29.65 in1004.1 mb 0.00 in0.0 mm 0.00 in0.0 mm 0.00 in0.0 mm
11:50 AM 59.0°F15.0°C 51.8°F11.0°C 76% 1.5 mph E2.4 kmh E 2.5 mph4.0 kmh 29.65 in1004.1 mb 0.00 in0.0 mm 0.00 in0.0 mm 0.00 in0.0 mm
11:55 AM 59.4°F15.2°C 51.8°F11.0°C 76% 1.8 mph ESE2.9 kmh ESE 3.1 mph5.0 kmh 29.65 in1004.1 mb 0.00 in0.0 mm 0.00 in0.0 mm 0.00 in0.0 mm
12:00 PM 59.7°F15.4°C 51.8°F11.0°C 76% 2.4 mph SE3.9 kmh SE 4.9 mph7.9 kmh 29.65 in1004.1 mb 0.00 in0.0 mm 0.00 in0.0 mm 0.00 in0.0 mm
12:05 PM 59.5°F15.3°C 51.8°F11.0°C 75% 2.9 mph ESE4.7 kmh ESE 4.9 mph7.9 kmh 29.65 in1004.1 mb 0.00 in0.0 mm 0.00 in0.0 mm 0.00 in0.0 mm
12:10 PM 59.4°F15.2°C 51.8°F11.0°C 76% 2.3 mph SE3.7 kmh SE 3.8 mph6.1 kmh 29.65 in1004.1 mb 0.00 in0.0 mm 0.00 in0.0 mm 0.00 in0.0 mm
12:15 PM 60.1°F15.6°C 53.6°F12.0°C 75% 2.0 mph SE3.2 kmh SE 4.7 mph7.6 kmh 29.65 in1004.1 mb 0.00 in0.0 mm 0.00 in0.0 mm 0.00 in0.0 mm
12:20 PM 60.8°F16.0°C 53.6°F12.0°C 75% 2.4 mph E3.9 kmh E 4.7 mph7.6 kmh 29.62 in1003.0 mb 0.00 in0.0 mm 0.00 in0.0 mm 0.00 in0.0 mm
12:25 PM 60.6°F15.9°C 53.6°F12.0°C 74% 2.0 mph ENE3.2 kmh ENE 4.7 mph7.6 kmh 29.62 in1003.0 mb 0.00 in0.0 mm 0.00 in0.0 mm 0.00 in0.0 mm
12:30 PM 61.2°F16.2°C 53.6°F12.0°C 74% 1.7 mph ESE2.7 kmh ESE 3.1 mph5.0 kmh 29.62 in1003.0 mb 0.00 in0.0 mm 0.00 in0.0 mm 0.00 in0.0 mm
12:35 PM 61.2°F16.2°C 53.6°F12.0°C 73% 1.8 mph SE2.9 kmh SE 3.1 mph5.0 kmh 29.65 in1004.1 mb 0.00 in0.0 mm 0.00 in0.0 mm 0.00 in0.0 mm
12:40 PM 61.0°F16.1°C 51.8°F11.0°C 73% 2.8 mph E4.5 kmh E 6.5 mph10.5 kmh 29.65 in1004.1 mb 0.00 in0.0 mm 0.00 in0.0 mm 0.00 in0.0 mm
12:45 PM 60.4°F15.8°C 51.8°F11.0°C 73% 3.0 mph E4.8 kmh E 6.5 mph10.5 kmh 29.65 in1004.1 mb 0.00 in0.0 mm 0.00 in0.0 mm 0.00 in0.0 mm
12:50 PM 61.0°F16.1°C 51.8°F11.0°C 73% 2.3 mph ESE3.7 kmh ESE 4.0 mph6.4 kmh 29.65 in1004.1 mb 0.00 in0.0 mm 0.00 in0.0 mm 0.00 in0.0 mm
12:55 PM 61.0°F16.1°C 51.8°F11.0°C 72% 2.6 mph E4.2 kmh E 7.8 mph12.6 kmh 29.65 in1004.1 mb 0.00 in0.0 mm 0.00 in0.0 mm 0.00 in0.0 mm
01:00 PM 61.5°F16.4°C 53.6°F12.0°C 72% 3.7 mph E6.0 kmh E 7.8 mph12.6 kmh 29.65 in1004.1 mb 0.00 in0.0 mm 0.00 in0.0 mm 0.00 in0.0 mm
01:05 PM 61.7°F16.5°C 53.6°F12.0°C 72% 3.5 mph E5.6 kmh E 7.8 mph12.6 kmh 29.65 in1004.1 mb 0.00 in0.0 mm 0.00 in0.0 mm 0.00 in0.0 mm
01:10 PM 61.5°F16.4°C 51.8°F11.0°C 71% 2.8 mph ESE4.5 kmh ESE 4.3 mph6.9 kmh 29.65 in1004.1 mb 0.00 in0.0 mm 0.00 in0.0 mm 0.00 in0.0 mm
01:15 PM 61.5°F16.4°C 51.8°F11.0°C 71% 2.7 mph SE4.3 kmh SE 4.3 mph6.9 kmh 29.65 in1004.1 mb 0.00 in0.0 mm 0.00 in0.0 mm 0.00 in0.0 mm
01:20 PM 61.2°F16.2°C 51.8°F11.0°C 71% 2.3 mph ESE3.7 kmh ESE 4.3 mph6.9 kmh 29.65 in1004.1 mb 0.00 in0.0 mm 0.00 in0.0 mm 0.00 in0.0 mm
01:25 PM 61.0°F16.1°C 51.8°F11.0°C 71% 1.8 mph SE2.9 kmh SE 3.1 mph5.0 kmh 29.65 in1004.1 mb 0.00 in0.0 mm 0.00 in0.0 mm 0.00 in0.0 mm
01:30 PM 60.8°F16.0°C 51.8°F11.0°C 72% 1.9 mph ESE3.1 kmh ESE 3.4 mph5.5 kmh 29.65 in1004.1 mb 0.00 in0.0 mm 0.00 in0.0 mm 0.00 in0.0 mm
01:35 PM 60.1°F15.6°C 51.8°F11.0°C 72% 2.2 mph SE3.5 kmh SE 4.3 mph6.9 kmh 29.65 in1004.1 mb 0.00 in0.0 mm 0.00 in0.0 mm 0.00 in0.0 mm
01:40 PM 60.4°F15.8°C 51.8°F11.0°C 72% 2.1 mph ESE3.4 kmh ESE 4.3 mph6.9 kmh 29.65 in1004.1 mb 0.00 in0.0 mm 0.00 in0.0 mm 0.00 in0.0 mm
01:45 PM 60.1°F15.6°C 51.8°F11.0°C 72% 1.9 mph E3.1 kmh E 3.6 mph5.8 kmh 29.65 in1004.1 mb 0.00 in0.0 mm 0.00 in0.0 mm 0.00 in0.0 mm
01:50 PM 60.1°F15.6°C 51.8°F11.0°C 72% 2.0 mph E3.2 kmh E 3.1 mph5.0 kmh 29.65 in1004.1 mb 0.00 in0.0 mm 0.00 in0.0 mm 0.00 in0.0 mm
01:55 PM 59.7°F15.4°C 51.8°F11.0°C 72% 2.1 mph ESE3.4 kmh ESE 3.6 mph5.8 kmh 29.65 in1004.1 mb 0.00 in0.0 mm 0.00 in0.0 mm 0.00 in0.0 mm
02:00 PM 59.9°F15.5°C 51.8°F11.0°C 72% 1.8 mph SE2.9 kmh SE 3.6 mph5.8 kmh 29.65 in1004.1 mb 0.00 in0.0 mm 0.00 in0.0 mm 0.00 in0.0 mm
02:05 PM 59.9°F15.5°C 51.8°F11.0°C 73% 2.6 mph ESE4.2 kmh ESE 5.8 mph9.3 kmh 29.65 in1004.1 mb 0.00 in0.0 mm 0.00 in0.0 mm 0.00 in0.0 mm
02:10 PM 59.0°F15.0°C 50.0°F10.0°C 73% 3.3 mph ESE5.3 kmh ESE 5.8 mph9.3 kmh 29.65 in1004.1 mb 0.00 in0.0 mm 0.00 in0.0 mm 0.00 in0.0 mm
02:15 PM 59.0°F15.0°C 50.0°F10.0°C 73% 2.5 mph ESE4.0 kmh ESE 3.8 mph6.1 kmh 29.65 in1004.1 mb 0.00 in0.0 mm 0.00 in0.0 mm 0.00 in0.0 mm
02:20 PM 59.0°F15.0°C 50.0°F10.0°C 73% 1.5 mph E2.4 kmh E 3.8 mph6.1 kmh 29.65 in1004.1 mb 0.00 in0.0 mm 0.00 in0.0 mm 0.00 in0.0 mm
02:25 PM 59.2°F15.1°C 50.0°F10.0°C 73% 0.9 mph SE1.4 kmh SE 1.6 mph2.6 kmh 29.65 in1004.1 mb 0.00 in0.0 mm 0.00 in0.0 mm 0.00 in0.0 mm
02:30 PM 59.4°F15.2°C 51.8°F11.0°C 73% 0.9 mph SE1.4 kmh SE 2.0 mph3.2 kmh 29.65 in1004.1 mb 0.00 in0.0 mm 0.00 in0.0 mm 0.00 in0.0 mm
02:35 PM 59.0°F15.0°C 50.0°F10.0°C 73% 1.7 mph SE2.7 kmh SE 3.4 mph5.5 kmh 29.65 in1004.1 mb 0.00 in0.0 mm 0.00 in0.0 mm 0.00 in0.0 mm
02:40 PM 59.4°F15.2°C 51.8°F11.0°C 73% 1.6 mph SE2.6 kmh SE 3.4 mph5.5 kmh 29.65 in1004.1 mb 0.00 in0.0 mm 0.00 in0.0 mm 0.00 in0.0 mm
02:45 PM 59.4°F15.2°C 51.8°F11.0°C 73% 1.4 mph ESE2.3 kmh ESE 3.4 mph5.5 kmh 29.65 in1004.1 mb 0.00 in0.0 mm 0.00 in0.0 mm 0.00 in0.0 mm
02:50 PM 59.4°F15.2°C 51.8°F11.0°C 73% 2.3 mph E3.7 kmh E 3.8 mph6.1 kmh 29.65 in1004.1 mb 0.00 in0.0 mm 0.00 in0.0 mm 0.00 in0.0 mm
02:55 PM 59.5°F15.3°C 51.8°F11.0°C 73% 1.7 mph E2.7 kmh E 3.8 mph6.1 kmh 29.65 in1004.1 mb 0.00 in0.0 mm 0.00 in0.0 mm 0.00 in0.0 mm
03:00 PM 59.5°F15.3°C 51.8°F11.0°C 73% 1.0 mph ESE1.6 kmh ESE 2.5 mph4.0 kmh 29.65 in1004.1 mb 0.00 in0.0 mm 0.00 in0.0 mm 0.00 in0.0 mm
03:05 PM 59.7°F15.4°C 51.8°F11.0°C 74% 1.1 mph ESE1.8 kmh ESE 2.5 mph4.0 kmh 29.47 in998.0 mb 0.00 in0.0 mm 0.00 in0.0 mm 0.00 in0.0 mm
03:10 PM 59.7°F15.4°C 51.8°F11.0°C 74% 1.1 mph SE1.8 kmh SE 1.6 mph2.6 kmh 29.47 in998.0 mb 0.00 in0.0 mm 0.00 in0.0 mm 0.00 in0.0 mm
03:15 PM 59.4°F15.2°C 51.8°F11.0°C 74% 1.1 mph SE1.8 kmh SE 2.0 mph3.2 kmh 29.47 in998.0 mb 0.00 in0.0 mm 0.00 in0.0 mm 0.00 in0.0 mm
03:20 PM 59.0°F15.0°C 51.8°F11.0°C 74% 1.0 mph SE1.6 kmh SE 2.0 mph3.2 kmh 29.71 in1006.1 mb 0.00 in0.0 mm 0.00 in0.0 mm 0.00 in0.0 mm
03:25 PM 59.0°F15.0°C 51.8°F11.0°C 74% 1.5 mph E2.4 kmh E 3.1 mph5.0 kmh 29.71 in1006.1 mb 0.00 in0.0 mm 0.00 in0.0 mm 0.00 in0.0 mm
03:30 PM 59.0°F15.0°C 51.8°F11.0°C 75% 1.8 mph E2.9 kmh E 3.1 mph5.0 kmh 29.71 in1006.1 mb 0.00 in0.0 mm 0.00 in0.0 mm 0.00 in0.0 mm
03:35 PM 59.0°F15.0°C 51.8°F11.0°C 75% 1.2 mph E1.9 kmh E 3.1 mph5.0 kmh 29.68 in1005.1 mb 0.00 in0.0 mm 0.00 in0.0 mm 0.00 in0.0 mm
03:40 PM 59.0°F15.0°C 51.8°F11.0°C 75% 0.9 mph SE1.4 kmh SE 3.1 mph5.0 kmh 29.68 in1005.1 mb 0.00 in0.0 mm 0.00 in0.0 mm 0.00 in0.0 mm
03:45 PM 58.6°F14.8°C 50.0°F10.0°C 74% 0.9 mph SE1.4 kmh SE 1.6 mph2.6 kmh 29.68 in1005.1 mb 0.00 in0.0 mm 0.00 in0.0 mm 0.00 in0.0 mm
03:50 PM 58.3°F14.6°C 51.8°F11.0°C 75% 1.0 mph ESE1.6 kmh ESE 2.2 mph3.5 kmh 29.68 in1005.1 mb 0.00 in0.0 mm 0.00 in0.0 mm 0.00 in0.0 mm
03:55 PM 57.7°F14.3°C 50.0°F10.0°C 75% 1.3 mph E2.1 kmh E 2.7 mph4.3 kmh 29.68 in1005.1 mb 0.00 in0.0 mm 0.00 in0.0 mm 0.00 in0.0 mm
04:00 PM 57.6°F14.2°C 50.0°F10.0°C 76% 0.9 mph E1.4 kmh E 2.7 mph4.3 kmh 29.68 in1005.1 mb 0.00 in0.0 mm 0.00 in0.0 mm 0.00 in0.0 mm
04:05 PM 57.2°F14.0°C 50.0°F10.0°C 76% 0.7 mph ESE1.1 kmh ESE 1.6 mph2.6 kmh 29.71 in1006.1 mb 0.00 in0.0 mm 0.00 in0.0 mm 0.00 in0.0 mm
04:10 PM 56.8°F13.8°C 50.0°F10.0°C 76% 1.0 mph E1.6 kmh E 2.0 mph3.2 kmh 29.71 in1006.1 mb 0.00 in0.0 mm 0.00 in0.0 mm 0.00 in0.0 mm
04:15 PM 56.5°F13.6°C 50.0°F10.0°C 76% 0.6 mph E1.0 kmh E 2.0 mph3.2 kmh 29.71 in1006.1 mb 0.00 in0.0 mm 0.00 in0.0 mm 0.00 in0.0 mm
04:20 PM 56.3°F13.5°C 50.0°F10.0°C 76% 0.1 mph SE0.2 kmh SE 0.9 mph1.4 kmh 29.71 in1006.1 mb 0.00 in0.0 mm 0.00 in0.0 mm 0.00 in0.0 mm
04:25 PM 56.1°F13.4°C 50.0°F10.0°C 77% 0.3 mph SE0.5 kmh SE 1.3 mph2.1 kmh 29.71 in1006.1 mb 0.00 in0.0 mm 0.00 in0.0 mm 0.00 in0.0 mm
04:30 PM 56.1°F13.4°C 50.0°F10.0°C 77% 0.6 mph E1.0 kmh E 1.3 mph2.1 kmh 29.71 in1006.1 mb 0.00 in0.0 mm 0.00 in0.0 mm 0.00 in0.0 mm
04:35 PM 55.9°F13.3°C 50.0°F10.0°C 77% 0.8 mph E1.3 kmh E 1.6 mph2.6 kmh 29.45 in997.3 mb 0.00 in0.0 mm 0.00 in0.0 mm 0.00 in0.0 mm
04:40 PM 55.6°F13.1°C 48.2°F9.0°C 77% 0.5 mph E0.8 kmh E 1.6 mph2.6 kmh 29.45 in997.3 mb 0.00 in0.0 mm 0.00 in0.0 mm 0.00 in0.0 mm
04:45 PM 55.4°F13.0°C 48.2°F9.0°C 77% 0.2 mph SE0.3 kmh SE 1.6 mph2.6 kmh 29.45 in997.3 mb 0.00 in0.0 mm 0.00 in0.0 mm 0.00 in0.0 mm
04:50 PM 55.2°F12.9°C 48.2°F9.0°C 77% 0.1 mph SE0.2 kmh SE 1.3 mph2.1 kmh 29.71 in1006.1 mb 0.00 in0.0 mm 0.00 in0.0 mm 0.00 in0.0 mm
05:05 PM 54.3°F12.4°C 48.2°F9.0°C 78% 0.3 mph E0.5 kmh E 0.9 mph1.4 kmh 30.39 in1029.1 mb 0.00 in0.0 mm 0.00 in0.0 mm 0.00 in0.0 mm
05:10 PM 54.1°F12.3°C 48.2°F9.0°C 78% 0.2 mph E0.3 kmh E 0.9 mph1.4 kmh 30.39 in1029.1 mb 0.00 in0.0 mm 0.00 in0.0 mm 0.00 in0.0 mm
05:15 PM 53.8°F12.1°C 48.2°F9.0°C 78% 0.1 mph ENE0.2 kmh ENE 0.9 mph1.4 kmh 30.39 in1029.1 mb 0.00 in0.0 mm 0.00 in0.0 mm 0.00 in0.0 mm
05:20 PM 53.4°F11.9°C 46.4°F8.0°C 78% Calm Calm -- 30.39 in1029.1 mb 0.00 in0.0 mm 0.00 in0.0 mm 0.00 in0.0 mm
05:25 PM 53.2°F11.8°C 46.4°F8.0°C 78% Calm Calm -- 30.39 in1029.1 mb 0.00 in0.0 mm 0.00 in0.0 mm 0.00 in0.0 mm
05:30 PM 52.7°F11.5°C 46.4°F8.0°C 78% Calm Calm -- 30.57 in1035.2 mb 0.00 in0.0 mm 0.00 in0.0 mm 0.00 in0.0 mm
05:35 PM 52.3°F11.3°C 46.4°F8.0°C 78% Calm Calm -- 30.57 in1035.2 mb 0.00 in0.0 mm 0.00 in0.0 mm 0.00 in0.0 mm
05:40 PM 52.3°F11.3°C 46.4°F8.0°C 79% 0.1 mph ESE0.2 kmh ESE 0.9 mph1.4 kmh 30.57 in1035.2 mb 0.00 in0.0 mm 0.00 in0.0 mm 0.00 in0.0 mm
05:45 PM 52.0°F11.1°C 46.4°F8.0°C 79% 0.1 mph ESE0.2 kmh ESE 0.9 mph1.4 kmh 30.57 in1035.2 mb 0.00 in0.0 mm 0.00 in0.0 mm 0.00 in0.0 mm
05:50 PM 51.8°F11.0°C 46.4°F8.0°C 79% Calm Calm -- 30.57 in1035.2 mb 0.00 in0.0 mm 0.00 in0.0 mm 0.00 in0.0 mm
05:55 PM 51.4°F10.8°C 44.6°F7.0°C 79% Calm Calm -- 30.57 in1035.2 mb 0.00 in0.0 mm 0.00 in0.0 mm 0.00 in0.0 mm
06:00 PM 51.1°F10.6°C 44.6°F7.0°C 79% Calm Calm -- 30.57 in1035.2 mb 0.00 in0.0 mm 0.00 in0.0 mm 0.00 in0.0 mm
06:05 PM 50.7°F10.4°C 44.6°F7.0°C 79% Calm Calm -- 30.57 in1035.2 mb 0.00 in0.0 mm 0.00 in0.0 mm 0.00 in0.0 mm
06:10 PM 50.5°F10.3°C 44.6°F7.0°C 79% 0.1 mph SE0.2 kmh SE 0.9 mph1.4 kmh 30.57 in1035.2 mb 0.00 in0.0 mm 0.00 in0.0 mm 0.00 in0.0 mm
06:15 PM 50.4°F10.2°C 44.6°F7.0°C 79% 0.5 mph SE0.8 kmh SE 1.1 mph1.8 kmh 30.57 in1035.2 mb 0.00 in0.0 mm 0.00 in0.0 mm 0.00 in0.0 mm
06:20 PM 50.0°F10.0°C 44.6°F7.0°C 79% 0.5 mph SE0.8 kmh SE 1.1 mph1.8 kmh 30.57 in1035.2 mb 0.00 in0.0 mm 0.00 in0.0 mm 0.00 in0.0 mm
06:25 PM 49.6°F9.8°C 42.8°F6.0°C 79% Calm Calm -- 30.57 in1035.2 mb 0.00 in0.0 mm 0.00 in0.0 mm 0.00 in0.0 mm
06:30 PM 49.5°F9.7°C 42.8°F6.0°C 79% 0.6 mph E1.0 kmh E 2.0 mph3.2 kmh 30.57 in1035.2 mb 0.00 in0.0 mm 0.00 in0.0 mm 0.00 in0.0 mm
06:35 PM 49.3°F9.6°C 42.8°F6.0°C 79% 1.1 mph E1.8 kmh E 2.0 mph3.2 kmh 30.57 in1035.2 mb 0.00 in0.0 mm 0.00 in0.0 mm 0.00 in0.0 mm
06:40 PM 49.1°F9.5°C 42.8°F6.0°C 79% 0.6 mph E1.0 kmh E 1.3 mph2.1 kmh 30.57 in1035.2 mb 0.00 in0.0 mm 0.00 in0.0 mm 0.00 in0.0 mm
06:45 PM 48.9°F9.4°C 42.8°F6.0°C 79% 0.5 mph E0.8 kmh E 1.1 mph1.8 kmh 30.57 in1035.2 mb 0.00 in0.0 mm 0.00 in0.0 mm 0.00 in0.0 mm
06:50 PM 48.4°F9.1°C 42.8°F6.0°C 79% 0.4 mph E0.6 kmh E 1.1 mph1.8 kmh 30.57 in1035.2 mb 0.00 in0.0 mm 0.00 in0.0 mm 0.00 in0.0 mm
06:55 PM 48.2°F9.0°C 42.8°F6.0°C 79% Calm Calm -- 30.60 in1036.2 mb 0.00 in0.0 mm 0.00 in0.0 mm 0.00 in0.0 mm
07:00 PM 48.0°F8.9°C 42.8°F6.0°C 79% Calm Calm -- 30.60 in1036.2 mb 0.00 in0.0 mm 0.00 in0.0 mm 0.00 in0.0 mm
07:05 PM 47.7°F8.7°C 42.8°F6.0°C 79% Calm Calm -- 30.60 in1036.2 mb 0.00 in0.0 mm 0.00 in0.0 mm 0.00 in0.0 mm
07:10 PM 47.7°F8.7°C 42.8°F6.0°C 79% 0.2 mph ESE0.3 kmh ESE 1.1 mph1.8 kmh 30.57 in1035.2 mb 0.00 in0.0 mm 0.00 in0.0 mm 0.00 in0.0 mm
07:15 PM 47.3°F8.5°C 42.8°F6.0°C 79% 0.2 mph ESE0.3 kmh ESE 1.1 mph1.8 kmh 30.57 in1035.2 mb 0.00 in0.0 mm 0.00 in0.0 mm 0.00 in0.0 mm
07:20 PM 47.1°F8.4°C 42.8°F6.0°C 80% Calm Calm -- 30.57 in1035.2 mb 0.00 in0.0 mm 0.00 in0.0 mm 0.00 in0.0 mm
07:25 PM 46.9°F8.3°C 42.8°F6.0°C 80% Calm Calm -- 30.57 in1035.2 mb 0.00 in0.0 mm 0.00 in0.0 mm 0.00 in0.0 mm
07:30 PM 46.8°F8.2°C 41.0°F5.0°C 80% Calm Calm -- 30.57 in1035.2 mb 0.00 in0.0 mm 0.00 in0.0 mm 0.00 in0.0 mm
07:35 PM 46.2°F7.9°C 41.0°F5.0°C 80% 0.2 mph ESE0.3 kmh ESE 0.9 mph1.4 kmh 30.57 in1035.2 mb 0.00 in0.0 mm 0.00 in0.0 mm 0.00 in0.0 mm
07:40 PM 46.0°F7.8°C 41.0°F5.0°C 80% 0.2 mph ESE0.3 kmh ESE 0.9 mph1.4 kmh 30.60 in1036.2 mb 0.00 in0.0 mm 0.00 in0.0 mm 0.00 in0.0 mm
07:45 PM 45.7°F7.6°C 41.0°F5.0°C 80% Calm Calm 0.9 mph1.4 kmh 30.60 in1036.2 mb 0.00 in0.0 mm 0.00 in0.0 mm 0.00 in0.0 mm
07:50 PM 45.5°F7.5°C 41.0°F5.0°C 80% 0.4 mph ESE0.6 kmh ESE 1.6 mph2.6 kmh 30.60 in1036.2 mb 0.00 in0.0 mm 0.00 in0.0 mm 0.00 in0.0 mm
07:55 PM 45.5°F7.5°C 41.0°F5.0°C 80% 0.7 mph E1.1 kmh E 2.0 mph3.2 kmh 30.60 in1036.2 mb 0.00 in0.0 mm 0.00 in0.0 mm 0.00 in0.0 mm
08:00 PM 45.1°F7.3°C 39.2°F4.0°C 80% 0.5 mph E0.8 kmh E 2.0 mph3.2 kmh 30.60 in1036.2 mb 0.00 in0.0 mm 0.00 in0.0 mm 0.00 in0.0 mm
08:05 PM 45.0°F7.2°C 39.2°F4.0°C 80% 0.3 mph ENE0.5 kmh ENE 1.1 mph1.8 kmh 30.60 in1036.2 mb 0.00 in0.0 mm 0.00 in0.0 mm 0.00 in0.0 mm
08:10 PM 44.8°F7.1°C 39.2°F4.0°C 80% 1.0 mph NE1.6 kmh NE 2.2 mph3.5 kmh 30.60 in1036.2 mb 0.00 in0.0 mm 0.00 in0.0 mm 0.00 in0.0 mm
08:15 PM 44.6°F7.0°C 39.2°F4.0°C 80% 1.1 mph NE1.8 kmh NE 2.2 mph3.5 kmh 30.60 in1036.2 mb 0.00 in0.0 mm 0.00 in0.0 mm 0.00 in0.0 mm
08:20 PM 44.4°F6.9°C 39.2°F4.0°C 80% 0.6 mph NE1.0 kmh NE 2.2 mph3.5 kmh 30.60 in1036.2 mb 0.00 in0.0 mm 0.00 in0.0 mm 0.00 in0.0 mm
08:25 PM 44.2°F6.8°C 39.2°F4.0°C 80% 0.1 mph NE0.2 kmh NE 0.9 mph1.4 kmh 30.60 in1036.2 mb 0.00 in0.0 mm 0.00 in0.0 mm 0.00 in0.0 mm
08:30 PM 43.9°F6.6°C 39.2°F4.0°C 80% Calm Calm -- 30.60 in1036.2 mb 0.00 in0.0 mm 0.00 in0.0 mm 0.00 in0.0 mm
08:35 PM 43.7°F6.5°C 39.2°F4.0°C 80% 0.1 mph NE0.2 kmh NE 0.9 mph1.4 kmh 30.60 in1036.2 mb 0.00 in0.0 mm 0.00 in0.0 mm 0.00 in0.0 mm
08:40 PM 43.9°F6.6°C 39.2°F4.0°C 80% 0.8 mph NE1.3 kmh NE 2.0 mph3.2 kmh 30.57 in1035.2 mb 0.00 in0.0 mm 0.00 in0.0 mm 0.00 in0.0 mm
08:45 PM 43.9°F6.6°C 39.2°F4.0°C 81% 1.4 mph ENE2.3 kmh ENE 2.0 mph3.2 kmh 30.57 in1035.2 mb 0.00 in0.0 mm 0.00 in0.0 mm 0.00 in0.0 mm
08:50 PM 43.9°F6.6°C 39.2°F4.0°C 81% 1.4 mph E2.3 kmh E 2.0 mph3.2 kmh 30.57 in1035.2 mb 0.00 in0.0 mm 0.00 in0.0 mm 0.00 in0.0 mm
08:55 PM 43.7°F6.5°C 39.2°F4.0°C 81% 1.3 mph E2.1 kmh E 1.6 mph2.6 kmh 30.60 in1036.2 mb 0.00 in0.0 mm 0.00 in0.0 mm 0.00 in0.0 mm
09:00 PM 43.7°F6.5°C 39.2°F4.0°C 81% 1.1 mph ENE1.8 kmh ENE 1.3 mph2.1 kmh 30.60 in1036.2 mb 0.00 in0.0 mm 0.00 in0.0 mm 0.00 in0.0 mm
09:05 PM 43.5°F6.4°C 37.4°F3.0°C 81% 1.2 mph ENE1.9 kmh ENE 1.6 mph2.6 kmh 30.60 in1036.2 mb 0.00 in0.0 mm 0.00 in0.0 mm 0.00 in0.0 mm
09:10 PM 43.5°F6.4°C 37.4°F3.0°C 81% 1.4 mph ENE2.3 kmh ENE 2.0 mph3.2 kmh 30.57 in1035.2 mb 0.00 in0.0 mm 0.00 in0.0 mm 0.00 in0.0 mm
09:15 PM 43.3°F6.3°C 37.4°F3.0°C 81% 1.3 mph E2.1 kmh E 2.0 mph3.2 kmh 30.57 in1035.2 mb 0.00 in0.0 mm 0.00 in0.0 mm 0.00 in0.0 mm
09:20 PM 43.2°F6.2°C 37.4°F3.0°C 81% 0.9 mph E1.4 kmh E 1.6 mph2.6 kmh 30.57 in1035.2 mb 0.00 in0.0 mm 0.00 in0.0 mm 0.00 in0.0 mm
09:25 PM 42.8°F6.0°C 37.4°F3.0°C 81% 0.9 mph E1.4 kmh E 2.2 mph3.5 kmh 30.57 in1035.2 mb 0.00 in0.0 mm 0.00 in0.0 mm 0.00 in0.0 mm
09:30 PM 42.8°F6.0°C 37.4°F3.0°C 81% 0.9 mph ENE1.4 kmh ENE 2.2 mph3.5 kmh 30.57 in1035.2 mb 0.00 in0.0 mm 0.00 in0.0 mm 0.00 in0.0 mm
09:35 PM 42.4°F5.8°C 37.4°F3.0°C 81% 0.5 mph NE0.8 kmh NE 2.0 mph3.2 kmh 30.57 in1035.2 mb 0.00 in0.0 mm 0.00 in0.0 mm 0.00 in0.0 mm
09:40 PM 42.1°F5.6°C 37.4°F3.0°C 81% 0.3 mph ENE0.5 kmh ENE 1.3 mph2.1 kmh 30.60 in1036.2 mb 0.00 in0.0 mm 0.00 in0.0 mm 0.00 in0.0 mm
09:45 PM 41.5°F5.3°C 37.4°F3.0°C 81% 0.3 mph ENE0.5 kmh ENE 1.3 mph2.1 kmh 30.60 in1036.2 mb 0.00 in0.0 mm 0.00 in0.0 mm 0.00 in0.0 mm
09:50 PM 41.4°F5.2°C 35.6°F2.0°C 81% 0.3 mph ENE0.5 kmh ENE 1.1 mph1.8 kmh 30.60 in1036.2 mb 0.00 in0.0 mm 0.00 in0.0 mm 0.00 in0.0 mm
09:55 PM 41.4°F5.2°C 35.6°F2.0°C 80% 0.3 mph ENE0.5 kmh ENE 1.1 mph1.8 kmh 30.57 in1035.2 mb 0.00 in0.0 mm 0.00 in0.0 mm 0.00 in0.0 mm
10:00 PM 41.2°F5.1°C 35.6°F2.0°C 81% 0.2 mph ENE0.3 kmh ENE 1.1 mph1.8 kmh 30.57 in1035.2 mb 0.00 in0.0 mm 0.00 in0.0 mm 0.00 in0.0 mm
10:05 PM 40.8°F4.9°C 35.6°F2.0°C 80% 0.1 mph ENE0.2 kmh ENE 1.1 mph1.8 kmh 30.57 in1035.2 mb 0.00 in0.0 mm 0.00 in0.0 mm 0.00 in0.0 mm
10:10 PM 41.0°F5.0°C 35.6°F2.0°C 81% 0.3 mph ENE0.5 kmh ENE 1.1 mph1.8 kmh 30.57 in1035.2 mb 0.00 in0.0 mm 0.00 in0.0 mm 0.00 in0.0 mm
10:15 PM 41.0°F5.0°C 35.6°F2.0°C 81% 0.4 mph ENE0.6 kmh ENE 1.1 mph1.8 kmh 30.57 in1035.2 mb 0.00 in0.0 mm 0.00 in0.0 mm 0.00 in0.0 mm
10:20 PM 41.0°F5.0°C 35.6°F2.0°C 81% 0.9 mph NE1.4 kmh NE 1.6 mph2.6 kmh 30.57 in1035.2 mb 0.00 in0.0 mm 0.00 in0.0 mm 0.00 in0.0 mm
10:25 PM 40.6°F4.8°C 35.6°F2.0°C 81% 0.8 mph NE1.3 kmh NE 1.6 mph2.6 kmh 30.57 in1035.2 mb 0.00 in0.0 mm 0.00 in0.0 mm 0.00 in0.0 mm
10:30 PM 40.5°F4.7°C 35.6°F2.0°C 81% 0.6 mph NE1.0 kmh NE 3.1 mph5.0 kmh 30.57 in1035.2 mb 0.00 in0.0 mm 0.00 in0.0 mm 0.00 in0.0 mm
10:35 PM 40.6°F4.8°C 35.6°F2.0°C 82% 1.2 mph ENE1.9 kmh ENE 3.1 mph5.0 kmh 30.57 in1035.2 mb 0.00 in0.0 mm 0.00 in0.0 mm 0.00 in0.0 mm
10:40 PM 40.5°F4.7°C 35.6°F2.0°C 82% 1.8 mph ENE2.9 kmh ENE 3.1 mph5.0 kmh 30.57 in1035.2 mb 0.00 in0.0 mm 0.00 in0.0 mm 0.00 in0.0 mm
10:45 PM 40.6°F4.8°C 35.6°F2.0°C 82% 1.9 mph NE3.1 kmh NE 2.7 mph4.3 kmh 30.57 in1035.2 mb 0.00 in0.0 mm 0.00 in0.0 mm 0.00 in0.0 mm
10:50 PM 40.6°F4.8°C 35.6°F2.0°C 82% 1.9 mph ENE3.1 kmh ENE 2.7 mph4.3 kmh 30.57 in1035.2 mb 0.00 in0.0 mm 0.00 in0.0 mm 0.00 in0.0 mm
10:55 PM 40.5°F4.7°C 35.6°F2.0°C 82% 1.4 mph NE2.3 kmh NE 2.7 mph4.3 kmh 30.57 in1035.2 mb 0.00 in0.0 mm 0.00 in0.0 mm 0.00 in0.0 mm
11:00 PM 40.5°F4.7°C 35.6°F2.0°C 83% 1.6 mph NE2.6 kmh NE 2.7 mph4.3 kmh 30.57 in1035.2 mb 0.00 in0.0 mm 0.00 in0.0 mm 0.00 in0.0 mm
11:05 PM 40.5°F4.7°C 35.6°F2.0°C 83% 1.8 mph NE2.9 kmh NE 2.7 mph4.3 kmh 30.57 in1035.2 mb 0.00 in0.0 mm 0.00 in0.0 mm 0.00 in0.0 mm
11:10 PM 40.1°F4.5°C 35.6°F2.0°C 82% 1.0 mph NE1.6 kmh NE 2.7 mph4.3 kmh 30.57 in1035.2 mb 0.00 in0.0 mm 0.00 in0.0 mm 0.00 in0.0 mm
11:15 PM 39.7°F4.3°C 35.6°F2.0°C 82% 0.1 mph NE0.2 kmh NE 1.1 mph1.8 kmh 30.57 in1035.2 mb 0.00 in0.0 mm 0.00 in0.0 mm 0.00 in0.0 mm
11:20 PM 39.9°F4.4°C 35.6°F2.0°C 82% 0.4 mph NE0.6 kmh NE 1.6 mph2.6 kmh 30.57 in1035.2 mb 0.00 in0.0 mm 0.00 in0.0 mm 0.00 in0.0 mm
11:25 PM 39.9°F4.4°C 35.6°F2.0°C 82% 0.7 mph NE1.1 kmh NE 1.6 mph2.6 kmh 30.57 in1035.2 mb 0.00 in0.0 mm 0.00 in0.0 mm 0.00 in0.0 mm
11:30 PM 39.9°F4.4°C 35.6°F2.0°C 82% 0.9 mph NE1.4 kmh NE 1.6 mph2.6 kmh 30.57 in1035.2 mb 0.00 in0.0 mm 0.00 in0.0 mm 0.00 in0.0 mm
11:35 PM 39.7°F4.3°C 35.6°F2.0°C 82% 1.3 mph NE2.1 kmh NE 2.7 mph4.3 kmh 30.57 in1035.2 mb 0.00 in0.0 mm 0.00 in0.0 mm 0.00 in0.0 mm
11:40 PM 39.6°F4.2°C 35.6°F2.0°C 82% 1.2 mph NE1.9 kmh NE 2.7 mph4.3 kmh 30.57 in1035.2 mb 0.00 in0.0 mm 0.00 in0.0 mm 0.00 in0.0 mm
11:45 PM 39.4°F4.1°C 33.8°F1.0°C 82% 0.6 mph NW1.0 kmh NW 2.2 mph3.5 kmh 30.57 in1035.2 mb 0.00 in0.0 mm 0.00 in0.0 mm 0.00 in0.0 mm
11:50 PM 39.2°F4.0°C 33.8°F1.0°C 82% 0.6 mph NW1.0 kmh NW 1.3 mph2.1 kmh 30.57 in1035.2 mb 0.00 in0.0 mm 0.00 in0.0 mm 0.00 in0.0 mm
11:55 PM 39.2°F4.0°C 33.8°F1.0°C 82% 0.3 mph NE0.5 kmh NE 1.3 mph2.1 kmh 30.57 in1035.2 mb 0.00 in0.0 mm 0.00 in0.0 mm 0.00 in0.0 mm